createdAt,value
2018-02-19T00:01:16.331Z,99.90
2018-02-19T00:03:44.989Z,99.90
2018-02-19T00:06:12.576Z,99.90
2018-02-19T00:08:40.942Z,99.90
2018-02-19T00:11:08.551Z,99.90
2018-02-19T00:13:36.129Z,99.90
2018-02-19T00:16:03.702Z,99.90
2018-02-19T00:18:31.314Z,99.90
2018-02-19T00:20:59.637Z,99.90
2018-02-19T00:23:27.271Z,99.90
2018-02-19T00:25:55.604Z,99.90
2018-02-19T00:28:23.235Z,99.90
2018-02-19T00:30:50.839Z,99.90
2018-02-19T00:33:18.412Z,99.90
2018-02-19T00:35:46.028Z,99.90
2018-02-19T00:38:14.627Z,99.90
2018-02-19T00:40:42.255Z,99.90
2018-02-19T00:43:09.913Z,99.90
2018-02-19T00:45:37.808Z,99.90
2018-02-19T00:48:06.165Z,99.90
2018-02-19T00:50:33.745Z,99.90
2018-02-19T00:53:01.355Z,99.90
2018-02-19T00:55:28.948Z,99.90
2018-02-19T00:57:56.565Z,99.90
2018-02-19T01:00:24.913Z,99.90
2018-02-19T01:02:52.487Z,99.90
2018-02-19T01:05:20.094Z,99.90
2018-02-19T01:07:47.691Z,99.90
2018-02-19T01:10:15.259Z,99.90
2018-02-19T01:12:44.067Z,99.90
2018-02-19T01:15:11.695Z,99.90
2018-02-19T01:17:39.307Z,99.90
2018-02-19T01:20:06.897Z,99.90
2018-02-19T01:22:35.295Z,99.90
2018-02-19T01:25:02.879Z,99.90
2018-02-19T01:27:30.444Z,99.90
2018-02-19T01:29:58.046Z,99.90
2018-02-19T01:32:25.657Z,99.90
2018-02-19T01:34:53.251Z,99.90
2018-02-19T01:37:20.856Z,99.90
2018-02-19T01:39:48.470Z,99.90
2018-02-19T01:42:16.086Z,99.90
2018-02-19T01:44:43.688Z,99.90
2018-02-19T01:47:11.302Z,99.90
2018-02-19T01:49:39.027Z,99.90
2018-02-19T01:52:06.609Z,99.90
2018-02-19T01:54:34.189Z,99.90
2018-02-19T01:57:01.846Z,99.90
2018-02-19T01:59:29.455Z,99.90
2018-02-19T02:01:57.072Z,99.90
2018-02-19T02:04:24.650Z,99.90
2018-02-19T02:06:52.284Z,99.90
2018-02-19T02:09:19.910Z,99.90
2018-02-19T02:11:47.484Z,99.90
2018-02-19T02:14:15.089Z,99.90
2018-02-19T02:16:42.677Z,99.90
2018-02-19T02:19:10.287Z,99.90
2018-02-19T02:21:37.915Z,99.90
2018-02-19T02:24:05.497Z,99.90
2018-02-19T02:26:33.082Z,99.90
2018-02-19T02:29:01.437Z,99.90
2018-02-19T02:31:29.041Z,99.90
2018-02-19T02:33:57.420Z,99.90
2018-02-19T02:36:25.003Z,99.90
2018-02-19T02:38:53.510Z,99.90
2018-02-19T02:41:21.101Z,99.90
2018-02-19T02:43:49.484Z,99.90
2018-02-19T02:46:17.126Z,99.90
2018-02-19T02:48:44.752Z,99.90
2018-02-19T02:51:13.113Z,99.90
2018-02-19T02:53:40.719Z,99.90
2018-02-19T02:56:08.307Z,99.90
2018-02-19T02:58:35.895Z,99.90
2018-02-19T03:01:03.504Z,99.90
2018-02-19T03:03:31.116Z,99.90
2018-02-19T03:05:58.707Z,99.90
2018-02-19T03:08:26.343Z,99.90
2018-02-19T03:10:53.929Z,99.90
2018-02-19T03:13:21.584Z,99.90
2018-02-19T03:15:49.381Z,99.90
2018-02-19T03:18:17.028Z,99.90
2018-02-19T03:20:44.645Z,99.90
2018-02-19T03:23:12.227Z,99.90
2018-02-19T03:25:39.819Z,99.90
2018-02-19T03:28:07.446Z,99.90
2018-02-19T03:30:35.093Z,99.90
2018-02-19T03:33:03.413Z,99.90
2018-02-19T03:35:31.002Z,99.90
2018-02-19T03:37:58.613Z,99.90
2018-02-19T03:40:26.960Z,99.90
2018-02-19T03:42:54.549Z,99.90
2018-02-19T03:45:22.915Z,99.90
2018-02-19T03:47:50.501Z,99.90
2018-02-19T03:50:18.104Z,99.90
2018-02-19T03:52:45.679Z,99.90
2018-02-19T03:55:13.277Z,99.90
2018-02-19T03:57:40.896Z,99.90
2018-02-19T04:00:08.514Z,99.90
2018-02-19T04:02:36.921Z,99.90
2018-02-19T04:05:05.309Z,99.90
2018-02-19T04:07:32.901Z,99.90
2018-02-19T04:10:00.500Z,99.90
2018-02-19T04:12:28.072Z,99.90
2018-02-19T04:14:55.631Z,99.90
2018-02-19T04:17:23.234Z,99.90
2018-02-19T04:19:50.848Z,99.90
2018-02-19T04:22:18.426Z,99.90
2018-02-19T04:24:46.034Z,99.90
2018-02-19T04:27:13.692Z,99.90
2018-02-19T04:29:42.056Z,99.90
2018-02-19T04:32:09.696Z,99.90
2018-02-19T04:34:37.384Z,99.90
2018-02-19T04:37:04.957Z,99.90
2018-02-19T04:39:33.668Z,99.90
2018-02-19T04:42:02.300Z,99.90
2018-02-19T04:44:45.783Z,99.90
2018-02-19T04:47:13.387Z,99.90
2018-02-19T04:49:41.152Z,99.90
2018-02-19T04:52:08.784Z,99.90
2018-02-19T04:54:36.533Z,99.90
2018-02-19T04:57:04.918Z,99.90
2018-02-19T04:59:33.437Z,99.90
2018-02-19T05:02:01.071Z,99.90
2018-02-19T05:04:28.682Z,99.90
2018-02-19T05:06:56.276Z,99.90
2018-02-19T05:09:23.858Z,99.90
2018-02-19T05:11:51.462Z,99.90
2018-02-19T05:14:19.048Z,99.90
2018-02-19T05:16:46.680Z,99.90
2018-02-19T05:19:15.049Z,99.90
2018-02-19T05:21:50.065Z,99.90
2018-02-19T05:24:17.773Z,99.90
2018-02-19T05:26:46.133Z,99.90
2018-02-19T05:29:14.510Z,99.90
2018-02-19T05:31:42.867Z,99.90
2018-02-19T05:34:10.496Z,99.90
2018-02-19T05:36:38.107Z,99.90
2018-02-19T05:39:05.750Z,99.90
2018-02-19T05:41:33.377Z,99.90
2018-02-19T05:44:01.716Z,99.90
2018-02-19T05:46:29.316Z,99.90
2018-02-19T05:48:56.884Z,99.90
2018-02-19T05:51:25.255Z,99.90
2018-02-19T05:53:53.243Z,99.90
2018-02-19T05:56:21.621Z,99.90
2018-02-19T05:58:49.223Z,99.90
2018-02-19T06:01:17.205Z,99.90
2018-02-19T06:03:44.792Z,99.90
2018-02-19T06:06:12.384Z,99.90
2018-02-19T06:08:39.975Z,99.90
2018-02-19T06:11:07.585Z,99.90
2018-02-19T06:13:35.189Z,99.90
2018-02-19T06:16:02.797Z,99.90
2018-02-19T06:18:30.400Z,99.90
2018-02-19T06:20:58.102Z,99.90
2018-02-19T06:23:26.638Z,99.90
2018-02-19T06:25:54.211Z,99.90
2018-02-19T06:28:21.826Z,99.90
2018-02-19T06:30:49.446Z,99.90
2018-02-19T06:33:17.081Z,99.90
2018-02-19T06:35:44.657Z,99.90
2018-02-19T06:38:12.263Z,99.90
2018-02-19T06:40:39.880Z,99.90
2018-02-19T06:43:07.481Z,99.90
2018-02-19T06:45:35.038Z,99.90
2018-02-19T06:48:02.633Z,99.90
2018-02-19T06:50:30.974Z,99.90
2018-02-19T06:52:58.580Z,99.90
2018-02-19T06:55:26.195Z,99.90
2018-02-19T06:57:54.380Z,99.90
2018-02-19T07:00:21.970Z,99.90
2018-02-19T07:02:49.571Z,99.90
2018-02-19T07:05:17.924Z,99.90
2018-02-19T07:07:45.534Z,99.90
2018-02-19T07:10:13.438Z,99.90
2018-02-19T07:12:41.028Z,99.90
2018-02-19T07:15:08.612Z,99.90
2018-02-19T07:17:36.998Z,99.90
2018-02-19T07:20:05.336Z,99.90
2018-02-19T07:22:32.974Z,99.90
2018-02-19T07:25:05.553Z,99.90
2018-02-19T07:27:33.166Z,99.90
2018-02-19T07:30:00.765Z,99.90
2018-02-19T07:32:28.386Z,99.90
2018-02-19T07:34:56.044Z,99.90
2018-02-19T07:37:23.644Z,99.90
2018-02-19T07:39:52.075Z,99.90
2018-02-19T07:42:19.716Z,99.90
2018-02-19T07:44:47.908Z,99.90
2018-02-19T07:47:15.530Z,99.90
2018-02-19T07:49:43.121Z,99.90
2018-02-19T07:52:10.746Z,99.90
2018-02-19T07:54:38.332Z,99.90
2018-02-19T07:57:05.895Z,99.90
2018-02-19T07:59:33.921Z,99.90
2018-02-19T08:02:01.518Z,99.90
2018-02-19T08:04:29.079Z,99.90
2018-02-19T08:06:56.712Z,99.90
2018-02-19T08:09:24.329Z,99.90
2018-02-19T08:11:52.702Z,99.90
2018-02-19T08:14:20.464Z,99.90
2018-02-19T08:16:48.089Z,99.90
2018-02-19T08:19:15.688Z,99.90
2018-02-19T08:21:43.318Z,99.90
2018-02-19T08:24:10.961Z,99.90
2018-02-19T08:26:39.323Z,99.90
2018-02-19T08:29:06.932Z,99.90
2018-02-19T08:31:34.566Z,99.90
2018-02-19T08:34:02.163Z,99.90
2018-02-19T08:36:29.724Z,99.90
2018-02-19T08:38:58.134Z,99.90
2018-02-19T08:41:25.777Z,99.90
2018-02-19T08:43:54.103Z,99.90
2018-02-19T08:46:21.760Z,99.90
2018-02-19T08:48:49.365Z,99.90
2018-02-19T08:51:16.948Z,99.90
2018-02-19T08:53:45.318Z,99.90
2018-02-19T08:56:13.645Z,99.90
2018-02-19T08:58:41.558Z,99.90
2018-02-19T09:01:09.164Z,99.90
2018-02-19T09:03:36.787Z,99.90
2018-02-19T09:06:04.388Z,99.90
2018-02-19T09:08:32.771Z,99.90
2018-02-19T09:11:01.108Z,99.90
2018-02-19T09:13:28.706Z,99.90
2018-02-19T09:15:57.081Z,99.90
2018-02-19T09:18:25.471Z,99.90
2018-02-19T09:20:53.841Z,99.90
2018-02-19T09:23:21.471Z,99.90
2018-02-19T09:25:49.028Z,99.90
2018-02-19T09:28:16.614Z,99.90
2018-02-19T09:30:44.562Z,99.90
2018-02-19T09:33:12.233Z,99.30
2018-02-19T09:35:39.817Z,99.50
2018-02-19T09:38:07.448Z,99.80
2018-02-19T09:40:35.046Z,99.60
2018-02-19T09:43:02.608Z,99.10
2018-02-19T09:45:30.207Z,99.60
2018-02-19T09:47:58.539Z,99.70
2018-02-19T09:50:26.156Z,99.70
2018-02-19T09:52:54.506Z,98.60
2018-02-19T09:55:22.071Z,98.60
2018-02-19T09:57:49.666Z,98.00
2018-02-19T10:00:17.244Z,98.10
2018-02-19T10:02:45.623Z,98.40
2018-02-19T10:05:13.977Z,97.80
2018-02-19T10:07:41.872Z,97.80
2018-02-19T10:13:04.642Z,98.50
2018-02-19T10:15:32.962Z,97.10
2018-02-19T10:18:00.874Z,97.10
2018-02-19T10:20:28.442Z,96.60
2018-02-19T10:22:56.021Z,96.70
2018-02-19T10:25:23.612Z,97.00
2018-02-19T10:27:51.196Z,97.30
2018-02-19T10:30:18.812Z,96.00
2018-02-19T10:32:47.160Z,96.30
2018-02-19T10:35:14.760Z,96.30
2018-02-19T10:37:42.344Z,96.30
2018-02-19T10:40:10.700Z,95.40
2018-02-19T10:42:39.078Z,95.10
2018-02-19T10:45:06.636Z,95.00
2018-02-19T10:47:34.442Z,95.50
2018-02-19T10:50:02.793Z,94.50
2018-02-19T10:52:30.401Z,94.50
2018-02-19T10:54:57.990Z,93.80
2018-02-19T10:57:25.619Z,93.40
2018-02-19T10:59:53.934Z,93.30
2018-02-19T11:02:21.558Z,93.20
2018-02-19T11:04:49.937Z,92.90
2018-02-19T11:07:17.515Z,93.00
2018-02-19T11:09:45.310Z,93.20
2018-02-19T11:12:12.875Z,93.30
2018-02-19T11:14:40.473Z,92.60
2018-02-19T11:17:08.080Z,92.60
2018-02-19T11:19:35.694Z,92.50
2018-02-19T11:22:03.307Z,93.90
2018-02-19T11:24:31.685Z,92.40
2018-02-19T11:27:00.085Z,91.90
2018-02-19T11:29:27.682Z,91.90
2018-02-19T11:31:55.292Z,92.50
2018-02-19T11:34:22.860Z,92.50
2018-02-19T11:36:50.540Z,92.70
2018-02-19T11:39:18.878Z,92.30
2018-02-19T11:41:46.726Z,92.30
2018-02-19T11:44:14.363Z,91.80
2018-02-19T11:46:42.733Z,91.70
2018-02-19T11:49:10.308Z,91.70
2018-02-19T11:51:38.653Z,90.70
2018-02-19T11:54:06.269Z,90.70
2018-02-19T11:56:33.895Z,92.30
2018-02-19T11:59:01.531Z,90.70
2018-02-19T12:01:29.116Z,91.40
2018-02-19T12:03:56.700Z,92.40
2018-02-19T12:06:24.325Z,90.40
2018-02-19T12:08:51.901Z,90.10
2018-02-19T12:11:19.480Z,91.40
2018-02-19T12:13:47.064Z,89.60
2018-02-19T12:16:14.625Z,89.30
2018-02-19T12:18:42.228Z,89.00
2018-02-19T12:21:09.812Z,88.40
2018-02-19T12:23:37.376Z,90.40
2018-02-19T12:26:04.976Z,88.70
2018-02-19T12:28:32.581Z,89.30
2018-02-19T12:31:00.178Z,89.30
2018-02-19T12:33:27.780Z,89.20
2018-02-19T12:35:55.361Z,88.60
2018-02-19T12:38:24.032Z,87.40
2018-02-19T12:40:51.595Z,87.40
2018-02-19T12:43:19.207Z,87.70
2018-02-19T12:45:46.924Z,88.00
2018-02-19T12:48:14.509Z,89.20
2018-02-19T12:50:42.094Z,87.10
2018-02-19T12:53:10.450Z,88.10
2018-02-19T12:55:38.068Z,88.00
2018-02-19T12:58:05.647Z,89.30
2018-02-19T13:00:33.212Z,88.70
2018-02-19T13:03:00.804Z,89.20
2018-02-19T13:05:28.398Z,88.20
2018-02-19T13:07:56.764Z,90.70
2018-02-19T13:10:24.329Z,90.70
2018-02-19T13:12:52.002Z,87.70
2018-02-19T13:15:19.568Z,90.80
2018-02-19T13:17:47.950Z,90.80
2018-02-19T13:20:17.834Z,90.70
2018-02-19T13:22:46.195Z,89.20
2018-02-19T13:25:13.818Z,88.80
2018-02-19T13:27:42.211Z,88.50
2018-02-19T13:30:09.805Z,88.50
2018-02-19T13:32:37.422Z,87.90
2018-02-19T13:35:05.004Z,89.60
2018-02-19T13:37:33.340Z,89.80
2018-02-19T13:40:01.264Z,89.80
2018-02-19T13:42:28.849Z,90.00
2018-02-19T13:44:56.471Z,89.70
2018-02-19T13:47:24.105Z,89.90
2018-02-19T13:49:51.726Z,88.50
2018-02-19T13:52:20.075Z,89.90
2018-02-19T13:54:47.704Z,89.90
2018-02-19T13:57:15.326Z,89.00
2018-02-19T13:59:42.898Z,90.70
2018-02-19T14:02:10.478Z,89.40
2018-02-19T14:04:38.835Z,90.00
2018-02-19T14:07:06.402Z,90.00
2018-02-19T14:09:33.998Z,89.00
2018-02-19T14:12:01.574Z,88.40
2018-02-19T14:14:29.132Z,90.00
2018-02-19T14:16:56.820Z,90.60
2018-02-19T14:19:24.406Z,89.70
2018-02-19T14:21:51.997Z,90.40
2018-02-19T14:24:19.656Z,90.10
2018-02-19T14:26:47.220Z,90.00
2018-02-19T14:29:14.812Z,90.60
2018-02-19T14:31:43.194Z,91.00
2018-02-19T14:34:12.417Z,90.80
2018-02-19T14:36:39.977Z,90.80
2018-02-19T14:39:07.595Z,90.70
2018-02-19T14:41:36.042Z,90.30
2018-02-19T14:44:03.691Z,90.20
2018-02-19T14:46:31.263Z,90.40
2018-02-19T14:48:58.908Z,91.40
2018-02-19T14:51:26.539Z,91.40
2018-02-19T14:53:54.147Z,91.40
2018-02-19T14:56:22.507Z,91.30
2018-02-19T14:58:51.027Z,91.20
2018-02-19T15:01:19.569Z,91.20
2018-02-19T15:03:48.020Z,91.60
2018-02-19T15:06:15.610Z,91.60
2018-02-19T15:08:43.215Z,91.30
2018-02-19T15:11:10.810Z,92.40
2018-02-19T15:13:38.384Z,92.40
2018-02-19T15:16:06.378Z,91.70
2018-02-19T15:18:33.944Z,92.20
2018-02-19T15:21:01.561Z,92.30
2018-02-19T15:23:29.164Z,92.30
2018-02-19T15:25:56.749Z,93.00
2018-02-19T15:28:25.230Z,92.50
2018-02-19T15:30:53.684Z,93.10
2018-02-19T15:33:21.266Z,93.00
2018-02-19T15:35:48.925Z,92.70
2018-02-19T15:38:17.462Z,94.10
2018-02-19T15:40:45.048Z,93.30
2018-02-19T15:43:13.398Z,93.80
2018-02-19T15:45:41.021Z,93.80
2018-02-19T15:48:08.673Z,93.80
2018-02-19T15:50:36.271Z,93.80
2018-02-19T15:53:03.834Z,94.40
2018-02-19T15:55:31.506Z,94.80
2018-02-19T15:57:59.902Z,95.80
2018-02-19T16:00:28.260Z,95.80
2018-02-19T16:02:55.811Z,95.80
2018-02-19T16:05:23.486Z,96.00
2018-02-19T16:07:51.130Z,96.60
2018-02-19T16:10:18.740Z,96.40
2018-02-19T16:12:46.332Z,96.50
2018-02-19T16:15:13.919Z,97.10
2018-02-19T16:17:41.528Z,96.50
2018-02-19T16:20:10.614Z,95.90
2018-02-19T16:22:38.255Z,95.70
2018-02-19T16:25:05.863Z,95.30
2018-02-19T16:27:35.784Z,96.20
2018-02-19T16:30:04.136Z,96.40
2018-02-19T16:32:31.794Z,96.30
2018-02-19T16:34:59.405Z,95.60
2018-02-19T16:37:27.733Z,96.10
2018-02-19T16:39:55.301Z,95.90
2018-02-19T16:42:22.902Z,95.90
2018-02-19T16:44:50.540Z,95.80
2018-02-19T16:47:18.121Z,95.80
2018-02-19T16:49:45.732Z,96.30
2018-02-19T16:52:13.341Z,96.30
2018-02-19T16:54:41.005Z,96.30
2018-02-19T16:57:08.628Z,96.80
2018-02-19T16:59:36.484Z,97.10
2018-02-19T17:02:04.268Z,97.10
2018-02-19T17:04:32.628Z,97.40
2018-02-19T17:07:00.234Z,97.30
2018-02-19T17:09:27.850Z,97.30
2018-02-19T17:11:55.408Z,97.40
2018-02-19T17:14:23.020Z,97.60
2018-02-19T17:16:50.625Z,97.70
2018-02-19T17:19:18.226Z,97.90
2018-02-19T17:21:45.849Z,98.00
2018-02-19T17:24:13.488Z,98.10
2018-02-19T17:26:41.075Z,98.30
2018-02-19T17:29:08.733Z,98.20
2018-02-19T17:31:36.313Z,98.50
2018-02-19T17:34:03.934Z,98.40
2018-02-19T17:36:32.273Z,98.60
2018-02-19T17:38:59.894Z,98.60
2018-02-19T17:41:28.233Z,98.70
2018-02-19T17:43:55.828Z,98.70
2018-02-19T17:46:24.184Z,99.00
2018-02-19T17:48:52.130Z,99.00
2018-02-19T17:51:19.747Z,98.70
2018-02-19T17:53:48.124Z,98.90
2018-02-19T17:56:15.721Z,98.80
2018-02-19T17:58:43.568Z,99.10
2018-02-19T18:01:11.926Z,99.20
2018-02-19T18:03:39.512Z,99.20
2018-02-19T18:06:07.901Z,99.70
2018-02-19T18:08:36.244Z,99.50
2018-02-19T18:11:03.878Z,99.50
2018-02-19T18:13:31.480Z,99.30
2018-02-19T18:15:59.092Z,99.80
2018-02-19T18:18:27.483Z,99.50
2018-02-19T18:20:55.056Z,99.50
2018-02-19T18:23:23.756Z,99.40
2018-02-19T18:25:51.376Z,99.60
2018-02-19T18:28:19.043Z,99.60
2018-02-19T18:30:46.650Z,99.40
2018-02-19T18:33:14.650Z,99.80
2018-02-19T18:35:42.206Z,99.80
2018-02-19T18:38:09.793Z,99.90
2018-02-19T18:40:37.432Z,99.90
2018-02-19T18:43:05.040Z,99.90
2018-02-19T18:45:32.671Z,99.90
2018-02-19T18:48:00.252Z,99.90
2018-02-19T18:50:27.815Z,99.90
2018-02-19T18:52:55.445Z,99.90
2018-02-19T18:55:23.061Z,99.90
2018-02-19T18:57:51.511Z,99.90
2018-02-19T19:00:19.106Z,99.90
2018-02-19T19:02:46.683Z,99.90
2018-02-19T19:05:14.301Z,99.90
2018-02-19T19:21:10.190Z,99.90
2018-02-19T19:23:37.792Z,99.90
2018-02-19T19:26:05.378Z,99.90
2018-02-19T19:28:33.752Z,99.90
2018-02-19T19:31:01.361Z,99.90
2018-02-19T19:33:28.960Z,99.90
2018-02-19T19:35:56.545Z,99.90
2018-02-19T19:38:24.148Z,99.90
2018-02-19T19:40:52.533Z,99.90
2018-02-19T19:43:20.876Z,99.90
2018-02-19T19:45:48.504Z,99.90
2018-02-19T19:48:16.124Z,99.90
2018-02-19T19:50:43.764Z,99.90
2018-02-19T19:53:11.400Z,99.90
2018-02-19T19:55:38.984Z,99.90
2018-02-19T19:58:06.616Z,99.90
2018-02-19T20:00:34.202Z,99.90
2018-02-19T20:03:02.571Z,99.90
2018-02-19T20:05:30.928Z,99.90
2018-02-19T20:07:58.541Z,99.90
2018-02-19T20:10:26.147Z,99.90
2018-02-19T20:12:53.769Z,99.90
2018-02-19T20:15:22.156Z,99.90
2018-02-19T20:17:49.790Z,99.90
2018-02-19T20:20:17.359Z,99.90
2018-02-19T20:22:45.003Z,99.90
2018-02-19T20:25:12.620Z,99.90
2018-02-19T20:27:41.311Z,99.90
2018-02-19T20:30:09.692Z,99.90
2018-02-19T20:32:37.294Z,99.90
2018-02-19T20:35:04.898Z,99.90
2018-02-19T20:37:33.825Z,99.90
2018-02-19T20:40:01.449Z,99.90
2018-02-19T20:42:29.083Z,99.90
2018-02-19T20:44:56.744Z,99.90
2018-02-19T20:47:25.511Z,99.90
2018-02-19T20:49:53.863Z,99.90
2018-02-19T20:52:21.456Z,99.90
2018-02-19T20:54:49.793Z,99.90
2018-02-19T20:57:17.426Z,99.90
2018-02-19T20:59:45.023Z,99.90
2018-02-19T21:02:12.642Z,99.90
2018-02-19T21:04:40.269Z,99.90
2018-02-19T21:07:07.885Z,99.90
2018-02-19T21:09:35.512Z,99.90
2018-02-19T21:12:03.873Z,99.90
2018-02-19T21:14:31.500Z,99.90
2018-02-19T21:16:59.092Z,99.90
2018-02-19T21:19:26.669Z,99.90
2018-02-19T21:21:54.337Z,99.90
2018-02-19T21:24:21.946Z,99.90
2018-02-19T21:26:50.313Z,99.90
2018-02-19T21:29:18.694Z,99.90
2018-02-19T21:31:47.074Z,99.90
2018-02-19T21:34:14.689Z,99.90
2018-02-19T21:36:43.175Z,99.90
2018-02-19T21:39:11.722Z,99.90
2018-02-19T21:41:39.358Z,99.90
2018-02-19T21:44:06.974Z,99.90
2018-02-19T21:46:34.973Z,99.90
2018-02-19T21:49:02.592Z,99.90
2018-02-19T21:51:30.150Z,99.90
2018-02-19T21:53:58.523Z,99.90
2018-02-19T21:56:26.140Z,99.90
2018-02-19T21:58:53.755Z,99.90
2018-02-19T22:01:21.329Z,99.90
2018-02-19T22:03:48.968Z,99.90
2018-02-19T22:06:16.593Z,99.90
2018-02-19T22:08:44.372Z,99.90
2018-02-19T22:11:11.952Z,99.90
2018-02-19T22:13:39.558Z,99.90
2018-02-19T22:16:07.926Z,99.90
2018-02-19T22:18:35.526Z,99.90
2018-02-19T22:21:03.137Z,99.90
2018-02-19T22:23:30.718Z,99.90
2018-02-19T22:25:58.606Z,99.90
2018-02-19T22:28:26.262Z,99.90
2018-02-19T22:30:53.800Z,99.90
2018-02-19T22:33:21.435Z,99.90
2018-02-19T22:35:49.811Z,99.90
2018-02-19T22:38:18.148Z,99.90
2018-02-19T22:40:46.141Z,99.90
2018-02-19T22:43:13.779Z,99.90
2018-02-19T22:45:41.397Z,99.90
2018-02-19T22:48:09.757Z,99.90
2018-02-19T22:50:37.384Z,99.90
2018-02-19T22:53:04.976Z,99.90
2018-02-19T22:55:32.589Z,99.90
2018-02-19T22:58:00.503Z,99.90
2018-02-19T23:00:28.107Z,99.90
2018-02-19T23:02:56.456Z,99.90
2018-02-19T23:05:24.052Z,99.90
2018-02-19T23:07:51.657Z,99.90
2018-02-19T23:10:19.312Z,99.90
2018-02-19T23:12:46.928Z,99.90
2018-02-19T23:15:14.512Z,99.90
2018-02-19T23:17:42.889Z,99.90
2018-02-19T23:20:10.537Z,99.90
2018-02-19T23:22:38.132Z,99.90
2018-02-19T23:25:06.505Z,99.90
2018-02-19T23:27:34.119Z,99.90
2018-02-19T23:30:01.715Z,99.90
2018-02-19T23:32:29.430Z,99.90
2018-02-19T23:35:02.372Z,99.90
2018-02-19T23:37:26.180Z,99.90
2018-02-19T23:39:53.818Z,99.90
2018-02-19T23:42:21.808Z,99.90
2018-02-19T23:44:49.441Z,99.90
2018-02-19T23:47:17.260Z,99.90
2018-02-19T23:49:45.616Z,99.90
2018-02-19T23:52:13.188Z,99.90
2018-02-19T23:54:40.805Z,99.90
2018-02-19T23:57:08.420Z,99.90
2018-02-19T23:59:36.027Z,99.90
